Time;durP1;ratioP1;P1;durP2;ratioP2;P2;SDS_P1;SDS_P2;PMS_P1;PMS_P2;Temp;Humidity;BMP_temperature;BMP_pressure;BME280_temperature;BME280_humidity;BME280_pressure;Samples;Min_cycle;Max_cycle;Signal;HPM_P1;HPM_P2
2023/03/18 00:01:24;;;;;;;16.77;15.37;;;9.80;72.80;;;;;;4975789;28;20282;-90
2023/03/18 00:03:50;;;;;;;16.90;15.57;;;9.70;73.00;;;;;;4976578;28;20253;-89
2023/03/18 00:06:18;;;;;;;16.77;15.10;;;9.70;73.30;;;;;;4975001;28;20171;-89
2023/03/18 00:08:46;;;;;;;17.60;16.20;;;9.70;73.50;;;;;;4973766;28;20226;-89
2023/03/18 00:11:13;;;;;;;17.37;15.97;;;9.60;73.70;;;;;;4974800;28;20190;-89
2023/03/18 00:13:40;;;;;;;17.07;15.30;;;9.60;73.90;;;;;;4974622;28;20250;-89
2023/03/18 00:16:07;;;;;;;18.00;16.50;;;9.50;74.00;;;;;;4975001;28;20205;-89
2023/03/18 00:18:33;;;;;;;17.33;16.00;;;9.60;74.00;;;;;;4974710;28;20681;-89
2023/03/18 00:21:00;;;;;;;17.87;15.87;;;9.50;73.90;;;;;;4975004;28;20271;-89
2023/03/18 00:23:27;;;;;;;16.47;15.27;;;9.60;74.00;;;;;;4974694;28;20199;-89
2023/03/18 00:25:55;;;;;;;17.53;15.80;;;9.50;74.10;;;;;;4973701;28;20190;-89
2023/03/18 00:28:21;;;;;;;16.27;15.07;;;9.60;74.10;;;;;;4974459;28;20178;-89
2023/03/18 00:30:48;;;;;;;17.00;15.57;;;9.50;74.20;;;;;;4974779;28;20548;-89
2023/03/18 00:33:14;;;;;;;15.77;14.57;;;9.50;74.60;;;;;;4974412;28;20175;-89
2023/03/18 00:35:40;;;;;;;16.63;15.33;;;9.40;75.20;;;;;;4973469;28;20214;-90
2023/03/18 00:38:07;;;;;;;16.07;14.77;;;9.30;75.40;;;;;;4974828;28;20215;-90
2023/03/18 00:40:52;;;;;;;15.87;14.33;;;9.30;75.90;;;;;;4957307;28;20273;-91
2023/03/18 00:43:21;;;;;;;15.80;14.57;;;9.20;76.50;;;;;;4957126;28;20229;-89
2023/03/18 00:45:49;;;;;;;15.03;13.90;;;9.20;76.80;;;;;;4973387;28;20261;-90
2023/03/18 00:48:16;;;;;;;15.30;14.10;;;9.20;76.90;;;;;;4974771;28;20523;-89
2023/03/18 00:50:42;;;;;;;15.27;13.93;;;9.20;77.10;;;;;;4973517;28;20182;-91
2023/03/18 00:53:08;;;;;;;14.73;13.23;;;9.20;77.20;;;;;;4974998;28;20579;-91
2023/03/18 00:55:33;;;;;;;14.63;13.30;;;9.20;77.00;;;;;;4974023;28;20207;-91
2023/03/18 00:57:59;;;;;;;14.77;13.57;;;9.20;77.10;;;;;;4974724;28;20198;-91
2023/03/18 01:00:25;;;;;;;14.83;13.60;;;9.30;77.20;;;;;;4958670;28;20740;-90
2023/03/18 01:02:52;;;;;;;14.87;13.63;;;9.30;77.20;;;;;;4960329;28;20203;-89
2023/03/18 01:05:17;;;;;;;14.27;13.07;;;9.30;77.10;;;;;;4974109;28;20740;-91
2023/03/18 01:07:43;;;;;;;14.37;13.00;;;9.30;77.10;;;;;;4974540;28;20179;-90
2023/03/18 01:10:11;;;;;;;14.37;13.17;;;9.30;77.20;;;;;;4973669;28;20253;-90
2023/03/18 01:12:37;;;;;;;14.53;13.13;;;9.30;77.30;;;;;;4974549;28;20205;-90
2023/03/18 01:15:04;;;;;;;18.53;13.60;;;9.30;77.30;;;;;;4973575;28;20202;-90
2023/03/18 01:17:30;;;;;;;14.10;12.63;;;9.30;77.30;;;;;;4974164;28;20190;-90
2023/03/18 01:19:56;;;;;;;13.40;12.30;;;9.30;77.10;;;;;;4974263;28;20182;-90
2023/03/18 01:22:22;;;;;;;14.37;13.17;;;9.40;76.80;;;;;;4975449;28;20532;-87
2023/03/18 01:24:47;;;;;;;18.20;15.80;;;9.50;76.50;;;;;;4975933;28;20225;-90
2023/03/18 01:27:13;;;;;;;14.00;12.60;;;9.50;76.70;;;;;;4976103;28;20653;-90
2023/03/18 01:29:39;;;;;;;13.50;12.40;;;9.60;76.30;;;;;;4975765;28;20704;-90
2023/03/18 01:32:05;;;;;;;13.57;11.90;;;9.60;76.10;;;;;;4975042;28;20181;-90
2023/03/18 01:34:31;;;;;;;13.07;11.97;;;9.70;76.00;;;;;;4973514;28;20633;-89
2023/03/18 01:36:57;;;;;;;16.63;12.53;;;9.80;75.80;;;;;;4974372;28;20189;-90
2023/03/18 01:39:23;;;;;;;14.20;12.60;;;9.80;75.80;;;;;;4976463;28;20234;-89
2023/03/18 01:41:50;;;;;;;17.93;12.83;;;9.80;75.80;;;;;;4974977;28;20179;-90
2023/03/18 01:44:21;;;;;;;13.50;11.90;;;9.80;75.80;;;;;;4974466;28;20210;-89
2023/03/18 01:46:48;;;;;;;15.33;12.00;;;9.90;75.70;;;;;;4974526;28;20540;-89
2023/03/18 01:49:21;;;;;;;14.20;12.80;;;9.90;75.70;;;;;;4976944;28;20716;-89
2023/03/18 01:52:00;;;;;;;13.30;11.87;;;10.00;75.40;;;;;;4977819;28;20642;-89
2023/03/18 01:54:28;;;;;;;13.20;12.10;;;10.00;75.50;;;;;;4977275;28;20206;-89
2023/03/18 01:56:54;;;;;;;13.47;12.03;;;10.10;75.30;;;;;;4977508;28;20178;-89
2023/03/18 01:59:25;;;;;;;12.13;11.13;;;10.10;75.20;;;;;;4977236;28;20182;-89
2023/03/18 02:01:57;;;;;;;14.07;12.70;;;10.00;75.90;;;;;;4977307;28;20198;-89
2023/03/18 02:04:29;;;;;;;15.07;11.57;;;10.20;75.40;;;;;;4977165;28;20305;-89
2023/03/18 02:06:57;;;;;;;13.00;11.67;;;10.20;75.70;;;;;;4977206;28;20206;-89
2023/03/18 02:09:23;;;;;;;13.00;11.70;;;10.20;75.70;;;;;;4977236;28;20206;-89
2023/03/18 02:11:50;;;;;;;15.60;11.67;;;10.20;76.20;;;;;;4977076;28;20182;-89
2023/03/18 02:14:19;;;;;;;14.73;12.07;;;10.10;76.70;;;;;;4977736;28;20293;-89
2023/03/18 02:16:54;;;;;;;11.63;10.40;;;10.10;76.80;;;;;;4977145;28;20250;-89
2023/03/18 02:19:53;;;;;;;11.70;10.53;;;10.10;77.40;;;;;;4977170;28;20227;-89
2023/03/18 02:22:38;;;;;;;11.80;10.50;;;10.00;77.60;;;;;;4976830;28;20695;-89
2023/03/18 02:25:36;;;;;;;14.57;10.27;;;9.90;78.00;;;;;;4976680;28;20214;-89
2023/03/18 02:28:05;;;;;;;10.60;9.70;;;9.90;78.20;;;;;;4976772;28;20155;-89
2023/03/18 02:30:35;;;;;;;12.13;9.83;;;9.90;78.30;;;;;;4975562;28;20183;-89
2023/03/18 02:33:01;;;;;;;10.67;9.33;;;10.00;78.50;;;;;;4975542;28;20653;-89
2023/03/18 02:35:29;;;;;;;10.90;9.80;;;9.90;78.90;;;;;;4976604;28;20233;-89
2023/03/18 02:37:54;;;;;;;13.30;9.43;;;9.90;79.00;;;;;;4976509;28;20544;-89
2023/03/18 02:40:25;;;;;;;11.37;10.17;;;9.90;79.20;;;;;;4976459;28;20175;-89
2023/03/18 02:42:51;;;;;;;15.97;9.77;;;9.90;79.20;;;;;;4975231;28;20171;-89
2023/03/18 02:45:49;;;;;;;11.07;9.97;;;10.00;78.90;;;;;;4975470;28;20247;-89
2023/03/18 02:48:19;;;;;;;10.57;9.53;;;10.00;78.90;;;;;;4976577;28;20167;-89
2023/03/18 02:50:44;;;;;;;9.33;8.43;;;10.00;79.30;;;;;;4976629;28;20178;-89
2023/03/18 02:53:11;;;;;;;11.60;8.37;;;9.90;79.80;;;;;;4976282;28;20179;-89
2023/03/18 02:55:37;;;;;;;12.37;9.17;;;9.90;80.30;;;;;;4976108;28;20273;-89
2023/03/18 02:58:02;;;;;;;9.70;8.70;;;9.80;80.80;;;;;;4976320;28;20664;-89
2023/03/18 03:00:28;;;;;;;9.37;8.10;;;9.90;81.20;;;;;;4976040;28;20237;-89
2023/03/18 03:02:54;;;;;;;10.23;8.30;;;9.80;81.40;;;;;;4974987;28;20186;-89
2023/03/18 03:05:20;;;;;;;14.13;8.10;;;9.80;81.90;;;;;;4976516;28;20235;-89
2023/03/18 03:07:45;;;;;;;10.53;8.00;;;9.70;83.00;;;;;;4958565;28;20186;-89
2023/03/18 03:10:12;;;;;;;9.13;8.23;;;9.60;83.90;;;;;;4976223;28;20171;-89
2023/03/18 03:12:38;;;;;;;10.33;8.13;;;9.50;84.20;;;;;;4975967;28;20178;-89
2023/03/18 03:15:06;;;;;;;9.57;8.63;;;9.50;84.10;;;;;;4974649;28;20205;-89
2023/03/18 03:17:32;;;;;;;9.87;8.10;;;9.60;84.00;;;;;;4974741;28;20213;-89
2023/03/18 03:19:59;;;;;;;9.97;8.50;;;9.60;83.80;;;;;;4976185;28;20218;-89
2023/03/18 03:22:26;;;;;;;14.83;8.97;;;9.60;84.00;;;;;;4975984;28;20644;-89
2023/03/18 03:24:52;;;;;;;10.40;8.67;;;9.50;84.20;;;;;;4975896;28;20202;-89
2023/03/18 03:27:18;;;;;;;8.73;7.93;;;9.50;84.50;;;;;;4974509;28;20645;-88
2023/03/18 03:29:43;;;;;;;11.47;8.40;;;9.50;84.50;;;;;;4958234;28;20175;-89
2023/03/18 03:32:09;;;;;;;12.70;8.87;;;9.50;84.80;;;;;;4975498;28;20175;-89
2023/03/18 03:34:35;;;;;;;14.67;9.33;;;9.50;84.80;;;;;;4975348;28;20201;-89
2023/03/18 03:37:00;;;;;;;15.87;8.43;;;9.40;85.00;;;;;;4975437;28;20208;-89
2023/03/18 03:39:26;;;;;;;11.23;8.57;;;9.40;85.20;;;;;;4974171;28;20215;-90
2023/03/18 03:41:52;;;;;;;13.70;8.53;;;9.30;85.30;;;;;;4975514;28;20182;-89
2023/03/18 03:44:18;;;;;;;13.03;9.23;;;9.40;85.40;;;;;;4973876;28;20210;-89
2023/03/18 03:46:44;;;;;;;9.70;8.70;;;9.30;85.60;;;;;;4975382;28;20167;-89
2023/03/18 03:49:10;;;;;;;17.20;8.70;;;9.30;86.00;;;;;;4975349;28;20177;-89
2023/03/18 03:51:36;;;;;;;9.97;8.63;;;9.30;86.00;;;;;;4975157;28;20182;-89
2023/03/18 03:54:02;;;;;;;12.33;9.03;;;9.30;86.00;;;;;;4975062;28;20201;-89
2023/03/18 03:56:28;;;;;;;12.33;9.30;;;9.20;86.10;;;;;;4974618;28;20179;-90
2023/03/18 03:58:53;;;;;;;10.10;9.10;;;9.20;86.10;;;;;;4975253;28;20186;-89
2023/03/18 04:01:19;;;;;;;11.90;9.77;;;9.30;86.10;;;;;;4974137;28;20186;-89
2023/03/18 04:03:44;;;;;;;10.87;8.67;;;9.30;85.90;;;;;;4975118;28;20210;-89
2023/03/18 04:06:10;;;;;;;10.50;8.47;;;9.30;85.90;;;;;;4975274;28;20237;-89
2023/03/18 04:08:36;;;;;;;10.50;8.87;;;9.30;85.80;;;;;;4974987;28;20660;-89
2023/03/18 04:11:03;;;;;;;12.77;8.87;;;9.20;85.80;;;;;;4974160;28;20194;-89
2023/03/18 04:13:28;;;;;;;14.40;9.23;;;9.20;85.80;;;;;;4975139;28;20175;-89
2023/03/18 04:15:54;;;;;;;10.17;7.97;;;9.20;85.80;;;;;;4975050;28;20637;-89
2023/03/18 04:18:20;;;;;;;10.23;8.33;;;9.10;86.00;;;;;;4975043;28;20178;-89
2023/03/18 04:20:46;;;;;;;9.50;8.43;;;9.10;86.00;;;;;;4974905;28;20241;-89
2023/03/18 04:23:13;;;;;;;9.33;8.37;;;9.10;85.90;;;;;;4974540;28;20198;-89
2023/03/18 04:25:38;;;;;;;14.07;8.23;;;9.10;86.00;;;;;;4957618;28;20196;-89
2023/03/18 04:28:04;;;;;;;10.83;8.80;;;9.00;86.00;;;;;;4974670;28;20182;-89
2023/03/18 04:30:30;;;;;;;18.10;8.87;;;9.00;86.20;;;;;;4974482;28;20206;-89
2023/03/18 04:32:56;;;;;;;10.37;8.87;;;9.20;85.90;;;;;;4974478;28;20294;-89
2023/03/18 04:35:22;;;;;;;12.40;8.33;;;9.10;85.70;;;;;;4974602;28;20703;-89
2023/03/18 04:37:53;;;;;;;12.53;9.47;;;9.20;85.70;;;;;;4974450;28;20186;-89
2023/03/18 04:40:19;;;;;;;11.10;8.73;;;9.20;85.70;;;;;;4973546;28;20170;-89
2023/03/18 04:42:46;;;;;;;12.97;9.40;;;9.20;85.80;;;;;;4974787;28;20688;-89
2023/03/18 04:45:14;;;;;;;12.70;9.27;;;9.20;85.90;;;;;;4973232;28;20206;-89
2023/03/18 04:47:41;;;;;;;14.07;8.93;;;9.10;85.90;;;;;;4974756;28;20170;-89
2023/03/18 04:50:10;;;;;;;18.73;8.47;;;9.10;86.00;;;;;;4975423;28;20699;-88
2023/03/18 04:52:39;;;;;;;9.80;8.77;;;9.00;86.00;;;;;;4974507;28;20202;-89
2023/03/18 04:55:06;;;;;;;12.07;9.90;;;9.10;86.10;;;;;;4974208;28;20195;-89
2023/03/18 04:57:34;;;;;;;13.43;9.20;;;9.10;86.00;;;;;;4974301;28;20175;-89
2023/03/18 05:00:00;;;;;;;11.20;9.37;;;9.10;86.10;;;;;;4974444;28;20170;-89
2023/03/18 05:02:26;;;;;;;11.53;9.20;;;9.20;86.20;;;;;;4973285;28;20215;-89
2023/03/18 05:04:52;;;;;;;15.17;9.27;;;9.20;86.20;;;;;;4974408;28;20214;-89
2023/03/18 05:07:17;;;;;;;15.33;9.33;;;9.20;86.40;;;;;;4973141;28;20179;-89
2023/03/18 05:09:43;;;;;;;13.77;9.67;;;9.30;86.30;;;;;;4974513;28;20175;-89
2023/03/18 05:12:14;;;;;;;13.23;9.03;;;9.30;86.20;;;;;;4974726;28;20178;-88
2023/03/18 05:14:43;;;;;;;15.53;10.80;;;9.50;86.00;;;;;;4974125;28;20269;-90
2023/03/18 05:17:14;;;;;;;13.67;10.07;;;9.50;86.00;;;;;;4973084;28;20194;-89
2023/03/18 05:19:41;;;;;;;12.67;10.27;;;9.60;85.80;;;;;;4974487;28;20160;-89
2023/03/18 05:22:07;;;;;;;14.63;11.60;;;9.50;86.10;;;;;;4974184;28;20210;-89
2023/03/18 05:24:33;;;;;;;13.43;10.90;;;9.60;86.00;;;;;;4977973;28;20254;-89
2023/03/18 05:26:59;;;;;;;19.43;12.33;;;9.60;85.90;;;;;;4978379;28;20265;-89
2023/03/18 05:29:24;;;;;;;14.40;10.97;;;9.60;86.00;;;;;;4977849;28;20259;-89
2023/03/18 05:31:50;;;;;;;17.03;12.30;;;9.60;86.00;;;;;;4977756;28;20206;-89
2023/03/18 05:34:15;;;;;;;14.03;11.13;;;9.60;86.00;;;;;;4960510;28;20310;-89
2023/03/18 05:36:41;;;;;;;18.70;12.07;;;9.60;86.10;;;;;;4977675;28;20182;-89
2023/03/18 05:39:07;;;;;;;16.33;11.67;;;9.60;86.30;;;;;;4977914;28;20183;-89
2023/03/18 05:41:33;;;;;;;22.33;11.83;;;9.60;86.50;;;;;;4977852;28;20178;-89
2023/03/18 05:43:58;;;;;;;19.47;12.50;;;9.50;86.80;;;;;;4977363;28;20217;-89
2023/03/18 05:46:24;;;;;;;16.33;12.40;;;9.60;86.80;;;;;;4960151;28;20182;-90
2023/03/18 05:48:50;;;;;;;19.77;11.80;;;9.60;86.40;;;;;;4977542;28;20171;-89
2023/03/18 05:51:16;;;;;;;17.50;12.33;;;9.60;86.60;;;;;;4960814;28;20274;-89
2023/03/18 05:53:41;;;;;;;19.83;13.13;;;9.60;86.80;;;;;;4977276;28;20199;-89
2023/03/18 05:56:07;;;;;;;19.60;13.27;;;9.50;87.10;;;;;;4977319;28;20191;-89
2023/03/18 05:58:33;;;;;;;19.97;12.70;;;9.50;87.10;;;;;;4977529;28;20183;-90
2023/03/18 06:00:59;;;;;;;18.17;13.13;;;9.50;87.00;;;;;;4977314;28;20650;-89
2023/03/18 06:03:26;;;;;;;19.50;13.03;;;9.50;87.00;;;;;;4976046;28;20681;-89
2023/03/18 06:05:52;;;;;;;19.90;12.63;;;9.50;87.20;;;;;;4976957;28;20549;-89
2023/03/18 06:08:18;;;;;;;19.90;12.57;;;9.50;87.20;;;;;;4977567;28;20258;-90
2023/03/18 06:10:43;;;;;;;20.17;13.77;;;9.60;86.90;;;;;;4976982;28;20229;-90
2023/03/18 06:13:10;;;;;;;16.90;13.40;;;9.60;87.00;;;;;;4977454;28;20190;-90
2023/03/18 06:15:36;;;;;;;19.27;13.50;;;9.60;87.10;;;;;;4977177;28;20195;-90
2023/03/18 06:18:03;;;;;;;16.90;12.80;;;9.70;86.80;;;;;;4977552;28;20174;-90
2023/03/18 06:20:29;;;;;;;19.93;13.23;;;9.70;86.80;;;;;;4976859;28;20278;-90
2023/03/18 06:22:55;;;;;;;16.30;13.40;;;9.80;86.60;;;;;;4976889;28;20190;-90
2023/03/18 06:25:22;;;;;;;20.53;14.37;;;9.80;86.60;;;;;;4976933;28;20194;-90
2023/03/18 06:27:48;;;;;;;21.10;13.90;;;9.80;86.60;;;;;;4976958;28;20179;-90
2023/03/18 06:30:15;;;;;;;18.00;14.17;;;9.90;86.50;;;;;;4975507;28;20179;-91
2023/03/18 06:32:41;;;;;;;19.63;14.33;;;9.80;86.60;;;;;;4976101;28;20234;-90
2023/03/18 06:35:07;;;;;;;18.40;14.87;;;9.90;86.50;;;;;;4975931;28;20195;-90
2023/03/18 06:37:33;;;;;;;20.43;13.80;;;10.00;86.30;;;;;;4976681;28;20183;-90
2023/03/18 06:39:59;;;;;;;19.03;14.77;;;10.00;86.40;;;;;;4976998;28;20185;-90
2023/03/18 06:42:24;;;;;;;20.40;14.40;;;9.90;86.50;;;;;;4959245;28;20214;-90
2023/03/18 06:44:50;;;;;;;16.27;14.53;;;10.00;86.30;;;;;;4976832;28;20210;-90
2023/03/18 06:47:23;;;;;;;19.00;14.27;;;10.00;86.10;;;;;;4976461;28;20183;-90
2023/03/18 06:49:49;;;;;;;18.80;15.23;;;10.10;86.20;;;;;;4976625;28;20618;-90
2023/03/18 06:52:16;;;;;;;23.93;14.60;;;10.10;86.10;;;;;;4976517;28;20629;-90
2023/03/18 06:54:43;;;;;;;18.63;14.90;;;10.10;86.00;;;;;;4975134;28;20234;-90
2023/03/18 06:57:08;;;;;;;18.17;15.20;;;10.10;86.20;;;;;;4976438;28;20261;-90
2023/03/18 06:59:35;;;;;;;18.50;14.73;;;10.20;86.00;;;;;;4975174;28;20653;-90
2023/03/18 07:02:01;;;;;;;19.33;15.07;;;10.30;86.10;;;;;;4976271;28;20262;-90
2023/03/18 07:04:26;;;;;;;19.80;15.33;;;10.20;86.40;;;;;;4958963;28;20619;-89
2023/03/18 07:06:52;;;;;;;26.53;16.23;;;10.30;86.40;;;;;;4976129;28;20179;-90
2023/03/18 07:09:18;;;;;;;21.47;15.17;;;10.40;85.80;;;;;;4976162;28;20190;-89
2023/03/18 07:11:47;;;;;;;24.77;15.07;;;10.40;85.40;;;;;;4976602;28;20254;-90
2023/03/18 07:14:15;;;;;;;20.30;15.10;;;10.40;85.50;;;;;;4975845;28;20199;-90
2023/03/18 07:16:41;;;;;;;22.83;14.07;;;10.50;85.70;;;;;;4976060;28;20728;-90
2023/03/18 07:19:07;;;;;;;20.47;15.23;;;10.50;85.60;;;;;;4974637;28;20269;-89
2023/03/18 07:21:34;;;;;;;22.63;14.57;;;10.50;85.40;;;;;;4975873;28;20187;-90
2023/03/18 07:24:00;;;;;;;23.17;16.00;;;10.50;85.80;;;;;;4974614;28;20623;-89
2023/03/18 07:26:26;;;;;;;21.40;14.73;;;10.50;85.80;;;;;;4978516;28;20649;-88
2023/03/18 07:28:52;;;;;;;18.70;15.53;;;10.60;85.50;;;;;;4980464;28;20713;-89
2023/03/18 07:31:17;;;;;;;22.90;15.73;;;10.70;85.00;;;;;;4975511;28;20175;-90
2023/03/18 07:33:43;;;;;;;20.90;14.57;;;10.80;84.70;;;;;;4960001;28;20218;-88
2023/03/18 07:36:08;;;;;;;22.37;14.87;;;10.80;84.70;;;;;;4958312;28;20178;-90
2023/03/18 07:38:34;;;;;;;21.27;15.03;;;10.90;84.50;;;;;;4975775;28;20179;-90
2023/03/18 07:41:00;;;;;;;33.67;16.83;;;11.00;84.80;;;;;;4975960;28;20179;-90
2023/03/18 07:43:26;;;;;;;24.30;16.97;;;11.10;84.40;;;;;;4975396;28;20740;-90
2023/03/18 07:45:51;;;;;;;21.20;16.93;;;11.10;84.40;;;;;;4977225;28;20186;-90
2023/03/18 07:48:18;;;;;;;22.63;17.20;;;11.10;83.70;;;;;;4961986;28;20545;-90
2023/03/18 07:50:44;;;;;;;23.13;17.33;;;11.10;83.50;;;;;;4977832;28;20648;-91
2023/03/18 07:53:11;;;;;;;22.40;17.00;;;11.10;83.90;;;;;;4976881;28;20226;-91
2023/03/18 07:55:37;;;;;;;19.33;16.70;;;11.20;84.10;;;;;;4978792;28;20289;-91
2023/03/18 07:58:03;;;;;;;16.60;14.27;;;11.30;83.80;;;;;;4975820;28;20680;-90
2023/03/18 08:00:29;;;;;;;19.80;17.63;;;11.30;83.50;;;;;;4976210;28;20229;-89
2023/03/18 08:02:55;;;;;;;22.57;17.10;;;11.40;83.50;;;;;;4975977;28;20278;-91
2023/03/18 08:05:21;;;;;;;25.90;17.40;;;11.40;83.40;;;;;;4978003;28;20198;-90
2023/03/18 08:07:47;;;;;;;23.73;16.47;;;11.40;83.90;;;;;;4979854;28;20186;-91
2023/03/18 08:10:13;;;;;;;24.00;17.20;;;11.40;83.60;;;;;;4981329;28;20277;-91
2023/03/18 08:12:39;;;;;;;21.67;17.00;;;11.40;83.30;;;;;;4981612;28;20254;-91
2023/03/18 08:15:06;;;;;;;20.87;17.37;;;11.30;83.20;;;;;;4977723;28;20213;-91
2023/03/18 08:17:32;;;;;;;18.80;16.87;;;11.30;83.40;;;;;;4961639;28;20171;-91
2023/03/18 08:19:57;;;;;;;22.50;18.13;;;11.20;83.60;;;;;;4978981;28;20539;-90
2023/03/18 08:22:24;;;;;;;23.13;18.33;;;11.20;83.50;;;;;;4964476;28;20175;-90
2023/03/18 08:24:50;;;;;;;23.47;18.57;;;11.10;83.70;;;;;;4984623;28;20198;-90
2023/03/18 08:27:16;;;;;;;21.27;18.30;;;11.10;83.90;;;;;;4980877;28;20162;-91
2023/03/18 08:29:42;;;;;;;20.57;17.37;;;11.10;83.70;;;;;;4984347;28;20315;-90
2023/03/18 08:32:08;;;;;;;25.13;17.77;;;11.10;83.80;;;;;;4982883;28;20665;-90
2023/03/18 08:34:34;;;;;;;19.30;17.07;;;11.00;83.90;;;;;;4980719;28;20230;-91
2023/03/18 08:37:00;;;;;;;24.83;19.20;;;11.00;84.30;;;;;;4980032;28;20170;-91
2023/03/18 08:39:25;;;;;;;29.87;18.37;;;10.90;84.30;;;;;;4980639;28;20170;-91
2023/03/18 08:41:51;;;;;;;20.17;17.97;;;10.90;84.30;;;;;;4983763;28;20250;-91
2023/03/18 08:44:17;;;;;;;22.20;17.17;;;10.90;84.30;;;;;;4983827;28;20206;-90
2023/03/18 08:46:42;;;;;;;21.17;18.67;;;10.90;84.40;;;;;;4983152;28;20189;-91
2023/03/18 08:49:09;;;;;;;29.23;18.53;;;10.80;84.60;;;;;;4964807;28;20175;-91
2023/03/18 08:51:35;;;;;;;21.07;17.70;;;10.80;84.70;;;;;;4983700;28;20182;-91
2023/03/18 08:54:01;;;;;;;25.70;17.63;;;10.70;85.10;;;;;;4976677;28;20206;-91
2023/03/18 08:56:26;;;;;;;23.50;19.10;;;10.70;86.10;;;;;;4975877;28;20226;-91
2023/03/18 08:58:52;;;;;;;22.90;18.53;;;10.50;87.00;;;;;;4978603;28;20187;-90
2023/03/18 09:01:21;;;;;;;33.70;21.43;;;10.50;87.90;;;;;;4978324;28;20206;-90
2023/03/18 09:03:49;;;;;;;25.10;19.83;;;10.30;88.80;;;;;;4977340;28;20576;-90
2023/03/18 09:06:15;;;;;;;27.00;20.20;;;10.30;89.40;;;;;;4978446;28;20206;-90
2023/03/18 09:08:41;;;;;;;30.40;20.87;;;10.20;89.70;;;;;;4977040;28;20178;-91
2023/03/18 09:11:08;;;;;;;33.13;21.80;;;10.20;90.00;;;;;;4978270;28;20167;-90
2023/03/18 09:13:34;;;;;;;30.53;19.53;;;10.20;90.10;;;;;;4978088;28;20300;-89
2023/03/18 09:16:00;;;;;;;33.00;21.30;;;10.20;90.10;;;;;;4976976;28;20179;-91
2023/03/18 09:18:26;;;;;;;27.93;20.43;;;10.20;90.00;;;;;;4976649;28;20230;-91
2023/03/18 09:20:52;;;;;;;27.60;20.73;;;10.30;90.20;;;;;;4977870;28;20195;-91
2023/03/18 09:23:18;;;;;;;24.23;20.43;;;10.20;90.10;;;;;;4978002;28;20250;-90
2023/03/18 09:25:45;;;;;;;25.63;21.23;;;10.30;90.20;;;;;;4960522;28;20218;-90
2023/03/18 09:28:13;;;;;;;29.77;21.13;;;10.30;90.20;;;;;;4976590;28;20170;-91
2023/03/18 09:30:38;;;;;;;26.43;20.97;;;10.40;90.10;;;;;;4977798;28;20167;-90
2023/03/18 09:33:05;;;;;;;25.80;21.03;;;10.50;90.10;;;;;;4978090;28;20720;-91
2023/03/18 09:35:31;;;;;;;26.97;21.07;;;10.60;89.80;;;;;;4976572;28;20225;-90
2023/03/18 09:37:57;;;;;;;28.37;20.70;;;10.70;90.00;;;;;;4976495;28;20198;-91
2023/03/18 09:40:29;;;;;;;30.43;21.37;;;10.70;89.90;;;;;;4977565;28;20183;-91
2023/03/18 09:43:21;;;;;;;28.07;20.30;;;10.80;89.90;;;;;;4976356;28;20178;-90
2023/03/18 09:45:58;;;;;;;27.77;21.57;;;10.80;89.70;;;;;;4977691;28;20201;-90
2023/03/18 09:48:35;;;;;;;29.37;20.87;;;11.00;89.70;;;;;;4977989;28;20155;-90
2023/03/18 09:51:36;;;;;;;23.87;20.50;;;11.10;89.50;;;;;;4978160;28;20154;-90
2023/03/18 09:54:11;;;;;;;32.27;19.23;;;11.10;89.10;;;;;;4977917;28;20191;-91
2023/03/18 09:56:38;;;;;;;28.00;20.63;;;11.20;89.20;;;;;;4977545;28;20167;-91
2023/03/18 09:59:36;;;;;;;24.63;21.23;;;11.20;89.10;;;;;;4977315;28;20218;-91
2023/03/18 10:02:04;;;;;;;29.80;21.23;;;11.20;88.90;;;;;;4977474;28;20163;-91
2023/03/18 10:05:07;;;;;;;24.17;20.00;;;11.30;89.00;;;;;;4977114;28;20206;-90
2023/03/18 10:07:43;;;;;;;27.67;19.63;;;11.30;88.80;;;;;;4960017;28;20270;-92
2023/03/18 10:10:20;;;;;;;24.60;18.93;;;11.40;88.70;;;;;;4976737;28;20258;-92
2023/03/18 10:12:53;;;;;;;22.00;19.40;;;11.70;88.50;;;;;;4978003;28;20194;-93
2023/03/18 10:15:38;;;;;;;23.17;18.30;;;11.90;88.00;;;;;;4976377;28;20199;-91
2023/03/18 10:18:16;;;;;;;24.93;17.83;;;12.20;87.80;;;;;;4976713;28;20679;-90
2023/03/18 10:21:19;;;;;;;19.97;16.50;;;12.50;87.60;;;;;;4975674;28;20625;-90
2023/03/18 10:24:04;;;;;;;22.57;17.77;;;12.40;85.60;;;;;;4977224;28;20587;-90
2023/03/18 10:27:01;;;;;;;20.33;17.03;;;12.60;85.90;;;;;;4976848;28;20167;-91
2023/03/18 10:29:39;;;;;;;21.33;19.30;;;12.70;86.20;;;;;;4977083;28;20155;-91
2023/03/18 10:32:20;;;;;;;25.90;17.60;;;12.50;85.30;;;;;;4977512;28;20163;-90
2023/03/18 10:35:07;;;;;;;19.57;17.47;;;12.80;86.10;;;;;;4976654;28;20218;-91
2023/03/18 10:38:01;;;;;;;21.57;17.90;;;13.00;85.90;;;;;;4976614;28;20621;-91
2023/03/18 10:40:31;;;;;;;18.73;16.20;;;13.10;84.60;;;;;;4977454;28;20182;-91
2023/03/18 10:42:57;;;;;;;18.30;16.03;;;13.20;84.40;;;;;;4976630;28;20551;-91
2023/03/18 10:45:33;;;;;;;19.53;15.50;;;13.30;84.30;;;;;;4976540;28;20210;-90
2023/03/18 10:48:04;;;;;;;18.43;15.57;;;13.50;84.00;;;;;;4978281;28;20174;-91
2023/03/18 10:50:43;;;;;;;19.70;15.57;;;13.50;83.60;;;;;;4978654;28;20180;-91
2023/03/18 10:53:37;;;;;;;16.13;14.50;;;13.70;83.50;;;;;;4984702;28;20185;-91
2023/03/18 10:56:09;;;;;;;21.80;15.90;;;13.50;82.40;;;;;;4972160;28;20187;-91
2023/03/18 10:58:40;;;;;;;16.77;15.07;;;13.70;82.90;;;;;;4979517;28;20174;-91
2023/03/18 11:01:08;;;;;;;16.87;15.10;;;13.70;81.70;;;;;;4979827;28;20656;-91
2023/03/18 11:03:35;;;;;;;17.83;12.80;;;13.80;82.40;;;;;;4983232;28;20281;-91
2023/03/18 11:06:03;;;;;;;16.10;14.50;;;14.00;82.00;;;;;;4978656;28;20597;-91
2023/03/18 11:08:38;;;;;;;18.20;14.67;;;14.00;80.90;;;;;;4979049;28;20167;-90
2023/03/18 11:11:25;;;;;;;15.27;13.67;;;14.10;80.40;;;;;;4979020;28;20537;-89
2023/03/18 11:13:54;;;;;;;22.07;15.23;;;14.20;81.40;;;;;;4978072;28;20194;-92
2023/03/18 11:16:22;;;;;;;16.07;14.57;;;14.10;80.40;;;;;;4978414;28;20511;-89
2023/03/18 11:18:50;;;;;;;15.43;13.97;;;14.10;79.60;;;;;;4976031;28;20589;-91
2023/03/18 11:21:16;;;;;;;16.63;13.70;;;14.30;80.00;;;;;;4979193;28;20216;-90
2023/03/18 11:23:55;;;;;;;17.63;15.13;;;14.10;79.40;;;;;;4975999;28;20214;-87
2023/03/18 11:26:28;;;;;;;16.77;15.03;;;13.80;80.10;;;;;;4975526;28;20171;-87
2023/03/18 11:28:57;;;;;;;18.53;14.23;;;13.80;79.10;;;;;;4974761;28;20266;-88
2023/03/18 11:31:22;;;;;;;16.67;14.33;;;14.10;80.00;;;;;;4974609;28;20171;-91
2023/03/18 11:33:48;;;;;;;16.60;14.97;;;14.10;78.20;;;;;;4976442;28;20201;-90
2023/03/18 11:36:21;;;;;;;16.73;15.03;;;13.70;79.10;;;;;;4974626;28;20182;-90
2023/03/18 11:38:56;;;;;;;17.43;14.37;;;13.70;80.20;;;;;;4974166;28;20183;-90
2023/03/18 11:41:24;;;;;;;26.77;20.97;;;13.80;79.50;;;;;;4975518;28;20162;-90
2023/03/18 11:44:00;;;;;;;23.67;21.57;;;13.80;79.50;;;;;;4974732;28;20261;-90
2023/03/18 11:46:29;;;;;;;23.60;21.50;;;13.80;80.20;;;;;;4974128;28;20166;-90
2023/03/18 11:48:55;;;;;;;28.37;21.30;;;13.90;80.10;;;;;;4975220;28;20171;-89
2023/03/18 11:51:31;;;;;;;20.67;18.60;;;13.80;79.90;;;;;;4975254;28;20653;-90
2023/03/18 11:53:56;;;;;;;20.67;18.57;;;14.00;79.70;;;;;;4973944;28;20209;-90
2023/03/18 11:56:33;;;;;;;20.47;18.20;;;14.60;79.80;;;;;;4975361;28;20257;-90
2023/03/18 11:59:12;;;;;;;23.93;18.87;;;15.20;78.00;;;;;;4975451;28;20162;-90
2023/03/18 12:02:09;;;;;;;19.48;17.20;;;15.20;76.60;;;;;;4975115;28;20171;-91
2023/03/18 12:05:02;;;;;;;19.90;18.00;;;15.30;75.50;;;;;;4974266;28;20211;-91
2023/03/18 12:08:00;;;;;;;21.42;19.33;;;15.40;76.10;;;;;;4974363;28;20166;-89
2023/03/18 12:10:40;;;;;;;21.45;19.42;;;15.70;74.90;;;;;;4975456;28;20171;-89
2023/03/18 12:13:08;;;;;;;21.85;19.45;;;15.80;74.20;;;;;;4973972;28;20222;-90
2023/03/18 12:15:38;;;;;;;21.48;19.48;;;15.40;74.40;;;;;;4974882;28;20222;-89
2023/03/18 12:18:17;;;;;;;21.13;19.00;;;15.30;75.50;;;;;;4973594;28;20191;-89
2023/03/18 12:20:56;;;;;;;20.38;18.40;;;15.70;75.60;;;;;;4974875;28;20570;-88
2023/03/18 12:23:28;;;;;;;21.13;19.02;;;15.50;74.60;;;;;;4975431;28;20162;-88
2023/03/18 12:26:08;;;;;;;22.13;19.80;;;15.20;76.00;;;;;;4974991;28;20166;-88
2023/03/18 12:28:56;;;;;;;21.33;19.33;;;15.30;75.80;;;;;;4973482;28;20542;-88
2023/03/18 12:31:35;;;;;;;20.77;18.77;;;15.40;75.50;;;;;;4973120;28;20178;-87
2023/03/18 12:34:02;;;;;;;20.77;18.90;;;15.20;76.00;;;;;;4973695;28;20209;-87
2023/03/18 12:36:53;;;;;;;21.98;19.90;;;15.00;75.90;;;;;;4973500;28;20211;-87
2023/03/18 12:39:28;;;;;;;19.67;17.88;;;14.80;76.30;;;;;;4973496;28;20226;-87
2023/03/18 12:42:37;;;;;;;21.35;19.05;;;14.70;76.20;;;;;;4974858;28;20170;-88
2023/03/18 12:45:15;;;;;;;20.00;18.15;;;14.60;75.60;;;;;;4968232;28;20769;-89